sensor_id;sensor_type;location;lat;lon;timestamp;temperature;humidity
40023;DHT22;25713;-35.352;149.036;2023-06-26T00:01:17;9.80;90.90
40023;DHT22;25713;-35.352;149.036;2023-06-26T00:03:49;9.80;91.50
40023;DHT22;25713;-35.352;149.036;2023-06-26T00:06:19;9.80;91.00
40023;DHT22;25713;-35.352;149.036;2023-06-26T00:08:48;9.80;91.00
40023;DHT22;25713;-35.352;149.036;2023-06-26T00:11:18;9.80;91.00
40023;DHT22;25713;-35.352;149.036;2023-06-26T00:13:47;9.80;91.10
40023;DHT22;25713;-35.352;149.036;2023-06-26T00:16:17;9.80;90.90
40023;DHT22;25713;-35.352;149.036;2023-06-26T00:18:48;9.90;91.00
40023;DHT22;25713;-35.352;149.036;2023-06-26T00:21:18;9.90;90.80
40023;DHT22;25713;-35.352;149.036;2023-06-26T00:23:48;10.00;90.70
40023;DHT22;25713;-35.352;149.036;2023-06-26T00:26:18;9.90;90.50
40023;DHT22;25713;-35.352;149.036;2023-06-26T00:28:47;9.90;90.80
40023;DHT22;25713;-35.352;149.036;2023-06-26T00:31:17;9.90;90.60
40023;DHT22;25713;-35.352;149.036;2023-06-26T00:33:46;10.00;90.70
40023;DHT22;25713;-35.352;149.036;2023-06-26T00:36:18;10.00;90.50
40023;DHT22;25713;-35.352;149.036;2023-06-26T00:38:48;10.00;90.50
40023;DHT22;25713;-35.352;149.036;2023-06-26T00:41:17;10.10;90.50
40023;DHT22;25713;-35.352;149.036;2023-06-26T00:43:47;10.10;90.70
40023;DHT22;25713;-35.352;149.036;2023-06-26T00:46:17;10.20;90.60
40023;DHT22;25713;-35.352;149.036;2023-06-26T00:48:47;10.20;90.30
40023;DHT22;25713;-35.352;149.036;2023-06-26T00:51:20;10.30;90.40
40023;DHT22;25713;-35.352;149.036;2023-06-26T00:53:49;10.30;90.30
40023;DHT22;25713;-35.352;149.036;2023-06-26T00:56:20;10.30;90.20
40023;DHT22;25713;-35.352;149.036;2023-06-26T00:58:50;10.40;90.20
40023;DHT22;25713;-35.352;149.036;2023-06-26T01:01:20;10.40;90.00
40023;DHT22;25713;-35.352;149.036;2023-06-26T01:03:50;10.40;89.60
40023;DHT22;25713;-35.352;149.036;2023-06-26T01:06:23;10.40;90.00
40023;DHT22;25713;-35.352;149.036;2023-06-26T01:08:53;10.40;89.90
40023;DHT22;25713;-35.352;149.036;2023-06-26T01:11:23;10.40;89.90
40023;DHT22;25713;-35.352;149.036;2023-06-26T01:13:54;10.40;89.30
40023;DHT22;25713;-35.352;149.036;2023-06-26T01:16:26;10.40;90.10
40023;DHT22;25713;-35.352;149.036;2023-06-26T01:18:57;10.50;89.70
40023;DHT22;25713;-35.352;149.036;2023-06-26T01:21:30;10.50;89.50
40023;DHT22;25713;-35.352;149.036;2023-06-26T01:24:04;10.40;89.50
40023;DHT22;25713;-35.352;149.036;2023-06-26T01:26:38;10.40;90.00
40023;DHT22;25713;-35.352;149.036;2023-06-26T01:29:11;10.50;89.70
40023;DHT22;25713;-35.352;149.036;2023-06-26T01:31:43;10.60;89.40
40023;DHT22;25713;-35.352;149.036;2023-06-26T01:34:13;10.50;89.00
40023;DHT22;25713;-35.352;149.036;2023-06-26T01:36:45;10.60;88.90
40023;DHT22;25713;-35.352;149.036;2023-06-26T01:39:18;10.50;89.00
40023;DHT22;25713;-35.352;149.036;2023-06-26T01:41:50;10.60;89.40
40023;DHT22;25713;-35.352;149.036;2023-06-26T01:44:26;10.50;88.90
40023;DHT22;25713;-35.352;149.036;2023-06-26T01:47:00;10.60;89.00
40023;DHT22;25713;-35.352;149.036;2023-06-26T01:49:38;10.60;89.20
40023;DHT22;25713;-35.352;149.036;2023-06-26T01:52:16;10.70;88.70
40023;DHT22;25713;-35.352;149.036;2023-06-26T01:54:57;10.70;88.60
40023;DHT22;25713;-35.352;149.036;2023-06-26T01:57:31;10.80;88.70
40023;DHT22;25713;-35.352;149.036;2023-06-26T02:00:02;10.80;87.80
40023;DHT22;25713;-35.352;149.036;2023-06-26T02:02:42;10.80;88.20
40023;DHT22;25713;-35.352;149.036;2023-06-26T02:05:15;10.80;87.70
40023;DHT22;25713;-35.352;149.036;2023-06-26T02:07:45;10.80;87.60
40023;DHT22;25713;-35.352;149.036;2023-06-26T02:10:15;10.80;87.40
40023;DHT22;25713;-35.352;149.036;2023-06-26T02:12:47;10.80;87.00
40023;DHT22;25713;-35.352;149.036;2023-06-26T02:15:17;10.80;85.80
40023;DHT22;25713;-35.352;149.036;2023-06-26T02:17:47;10.80;86.00
40023;DHT22;25713;-35.352;149.036;2023-06-26T02:20:16;10.90;86.90
40023;DHT22;25713;-35.352;149.036;2023-06-26T02:22:46;10.90;86.10
40023;DHT22;25713;-35.352;149.036;2023-06-26T02:25:17;10.90;85.90
40023;DHT22;25713;-35.352;149.036;2023-06-26T02:27:48;11.00;84.70
40023;DHT22;25713;-35.352;149.036;2023-06-26T02:30:18;10.90;85.60
40023;DHT22;25713;-35.352;149.036;2023-06-26T02:32:47;11.00;85.00
40023;DHT22;25713;-35.352;149.036;2023-06-26T02:35:17;11.00;84.60
40023;DHT22;25713;-35.352;149.036;2023-06-26T02:37:46;11.00;83.90
40023;DHT22;25713;-35.352;149.036;2023-06-26T02:40:16;11.00;84.10
40023;DHT22;25713;-35.352;149.036;2023-06-26T02:42:48;11.00;83.60
40023;DHT22;25713;-35.352;149.036;2023-06-26T02:45:17;11.10;83.90
40023;DHT22;25713;-35.352;149.036;2023-06-26T02:47:47;11.20;83.50
40023;DHT22;25713;-35.352;149.036;2023-06-26T02:50:17;11.20;83.50
40023;DHT22;25713;-35.352;149.036;2023-06-26T02:53:06;11.20;83.60
40023;DHT22;25713;-35.352;149.036;2023-06-26T02:55:36;11.10;83.00
40023;DHT22;25713;-35.352;149.036;2023-06-26T02:58:07;11.10;83.10
40023;DHT22;25713;-35.352;149.036;2023-06-26T03:00:38;11.10;83.80
40023;DHT22;25713;-35.352;149.036;2023-06-26T03:03:08;11.20;84.20
40023;DHT22;25713;-35.352;149.036;2023-06-26T03:05:38;11.20;84.10
40023;DHT22;25713;-35.352;149.036;2023-06-26T03:08:07;11.20;84.40
40023;DHT22;25713;-35.352;149.036;2023-06-26T03:10:38;11.20;83.60
40023;DHT22;25713;-35.352;149.036;2023-06-26T03:13:10;11.20;83.60
40023;DHT22;25713;-35.352;149.036;2023-06-26T03:15:39;11.10;82.90
40023;DHT22;25713;-35.352;149.036;2023-06-26T03:18:10;11.10;83.50
40023;DHT22;25713;-35.352;149.036;2023-06-26T03:20:39;11.10;84.00
40023;DHT22;25713;-35.352;149.036;2023-06-26T03:23:09;11.10;83.70
40023;DHT22;25713;-35.352;149.036;2023-06-26T03:25:39;11.10;84.20
40023;DHT22;25713;-35.352;149.036;2023-06-26T03:28:24;11.20;83.50
40023;DHT22;25713;-35.352;149.036;2023-06-26T03:30:53;11.10;84.00
40023;DHT22;25713;-35.352;149.036;2023-06-26T03:33:23;11.20;84.50
40023;DHT22;25713;-35.352;149.036;2023-06-26T03:35:53;11.20;84.50
40023;DHT22;25713;-35.352;149.036;2023-06-26T03:38:23;11.20;84.00
40023;DHT22;25713;-35.352;149.036;2023-06-26T03:40:55;11.20;84.30
40023;DHT22;25713;-35.352;149.036;2023-06-26T03:43:28;11.20;84.40
40023;DHT22;25713;-35.352;149.036;2023-06-26T03:46:19;11.20;84.30
40023;DHT22;25713;-35.352;149.036;2023-06-26T03:48:49;11.20;84.50
40023;DHT22;25713;-35.352;149.036;2023-06-26T03:51:19;11.20;84.40
40023;DHT22;25713;-35.352;149.036;2023-06-26T03:53:49;11.30;85.00
40023;DHT22;25713;-35.352;149.036;2023-06-26T03:56:19;11.30;85.20
40023;DHT22;25713;-35.352;149.036;2023-06-26T03:58:50;11.30;85.30
40023;DHT22;25713;-35.352;149.036;2023-06-26T04:01:20;11.30;85.30
40023;DHT22;25713;-35.352;149.036;2023-06-26T04:03:49;11.30;85.80
40023;DHT22;25713;-35.352;149.036;2023-06-26T04:06:19;11.30;86.00
40023;DHT22;25713;-35.352;149.036;2023-06-26T04:08:48;11.30;86.10
40023;DHT22;25713;-35.352;149.036;2023-06-26T04:11:19;11.30;86.80
40023;DHT22;25713;-35.352;149.036;2023-06-26T04:13:50;11.30;86.20
40023;DHT22;25713;-35.352;149.036;2023-06-26T04:16:20;11.30;86.80
40023;DHT22;25713;-35.352;149.036;2023-06-26T04:18:50;11.20;87.10
40023;DHT22;25713;-35.352;149.036;2023-06-26T04:21:20;11.20;86.80
40023;DHT22;25713;-35.352;149.036;2023-06-26T04:23:49;11.20;86.80
40023;DHT22;25713;-35.352;149.036;2023-06-26T04:26:19;11.20;86.90
40023;DHT22;25713;-35.352;149.036;2023-06-26T04:28:50;11.20;86.90
40023;DHT22;25713;-35.352;149.036;2023-06-26T04:31:20;11.20;87.10
40023;DHT22;25713;-35.352;149.036;2023-06-26T04:33:49;11.20;87.30
40023;DHT22;25713;-35.352;149.036;2023-06-26T04:36:19;11.20;88.30
40023;DHT22;25713;-35.352;149.036;2023-06-26T04:38:48;11.20;87.50
40023;DHT22;25713;-35.352;149.036;2023-06-26T04:41:18;11.20;87.00
40023;DHT22;25713;-35.352;149.036;2023-06-26T04:43:49;11.10;87.20
40023;DHT22;25713;-35.352;149.036;2023-06-26T04:46:19;11.20;87.30
40023;DHT22;25713;-35.352;149.036;2023-06-26T04:48:49;11.20;87.20
40023;DHT22;25713;-35.352;149.036;2023-06-26T04:51:18;11.20;87.10
40023;DHT22;25713;-35.352;149.036;2023-06-26T04:53:48;11.20;87.10
40023;DHT22;25713;-35.352;149.036;2023-06-26T04:56:17;11.10;86.70
40023;DHT22;25713;-35.352;149.036;2023-06-26T04:58:47;11.10;86.40
40023;DHT22;25713;-35.352;149.036;2023-06-26T05:01:19;11.00;86.30
40023;DHT22;25713;-35.352;149.036;2023-06-26T05:03:49;11.10;86.70
40023;DHT22;25713;-35.352;149.036;2023-06-26T05:06:18;11.20;86.10
40023;DHT22;25713;-35.352;149.036;2023-06-26T05:08:48;11.20;85.40
40023;DHT22;25713;-35.352;149.036;2023-06-26T05:11:17;11.20;85.00
40023;DHT22;25713;-35.352;149.036;2023-06-26T05:13:47;11.10;85.70
40023;DHT22;25713;-35.352;149.036;2023-06-26T05:16:21;11.20;85.40
40023;DHT22;25713;-35.352;149.036;2023-06-26T05:18:51;11.20;85.80
40023;DHT22;25713;-35.352;149.036;2023-06-26T05:21:21;11.30;85.30
40023;DHT22;25713;-35.352;149.036;2023-06-26T05:23:52;11.20;85.50
40023;DHT22;25713;-35.352;149.036;2023-06-26T05:26:24;11.30;85.90
40023;DHT22;25713;-35.352;149.036;2023-06-26T05:28:54;11.30;85.90
40023;DHT22;25713;-35.352;149.036;2023-06-26T05:31:26;11.30;85.70
40023;DHT22;25713;-35.352;149.036;2023-06-26T05:33:56;11.30;85.60
40023;DHT22;25713;-35.352;149.036;2023-06-26T05:36:27;11.30;86.00
40023;DHT22;25713;-35.352;149.036;2023-06-26T05:38:57;11.20;85.80
40023;DHT22;25713;-35.352;149.036;2023-06-26T05:41:27;11.30;86.10
40023;DHT22;25713;-35.352;149.036;2023-06-26T05:43:57;11.20;85.90
40023;DHT22;25713;-35.352;149.036;2023-06-26T05:46:28;11.20;85.50
40023;DHT22;25713;-35.352;149.036;2023-06-26T05:48:58;11.20;85.60
40023;DHT22;25713;-35.352;149.036;2023-06-26T05:51:28;11.30;85.90
40023;DHT22;25713;-35.352;149.036;2023-06-26T05:53:58;11.20;85.30
40023;DHT22;25713;-35.352;149.036;2023-06-26T05:56:28;11.20;85.80
40023;DHT22;25713;-35.352;149.036;2023-06-26T05:58:58;11.30;85.10
40023;DHT22;25713;-35.352;149.036;2023-06-26T06:01:30;11.20;85.20
40023;DHT22;25713;-35.352;149.036;2023-06-26T06:04:00;11.20;84.80
40023;DHT22;25713;-35.352;149.036;2023-06-26T06:06:30;11.20;85.10
40023;DHT22;25713;-35.352;149.036;2023-06-26T06:08:59;11.20;84.90
40023;DHT22;25713;-35.352;149.036;2023-06-26T06:11:29;11.10;84.20
40023;DHT22;25713;-35.352;149.036;2023-06-26T06:13:59;11.00;84.80
40023;DHT22;25713;-35.352;149.036;2023-06-26T06:16:30;11.00;84.40
40023;DHT22;25713;-35.352;149.036;2023-06-26T06:19:00;11.00;84.20
40023;DHT22;25713;-35.352;149.036;2023-06-26T06:21:29;10.80;83.40
40023;DHT22;25713;-35.352;149.036;2023-06-26T06:23:59;10.80;84.60
40023;DHT22;25713;-35.352;149.036;2023-06-26T06:26:28;10.70;84.30
40023;DHT22;25713;-35.352;149.036;2023-06-26T06:28:58;10.80;84.50
40023;DHT22;25713;-35.352;149.036;2023-06-26T06:31:29;10.70;83.10
40023;DHT22;25713;-35.352;149.036;2023-06-26T06:33:59;10.70;83.80
40023;DHT22;25713;-35.352;149.036;2023-06-26T06:36:29;10.70;84.70
40023;DHT22;25713;-35.352;149.036;2023-06-26T06:38:58;10.80;84.70
40023;DHT22;25713;-35.352;149.036;2023-06-26T06:41:28;10.80;83.80
40023;DHT22;25713;-35.352;149.036;2023-06-26T06:43:57;10.70;83.80
40023;DHT22;25713;-35.352;149.036;2023-06-26T06:46:27;10.70;82.90
40023;DHT22;25713;-35.352;149.036;2023-06-26T06:48:58;10.60;82.50
40023;DHT22;25713;-35.352;149.036;2023-06-26T06:51:28;10.60;83.30
40023;DHT22;25713;-35.352;149.036;2023-06-26T06:53:57;10.50;82.30
40023;DHT22;25713;-35.352;149.036;2023-06-26T06:56:27;10.40;81.90
40023;DHT22;25713;-35.352;149.036;2023-06-26T06:58:56;10.50;82.60
40023;DHT22;25713;-35.352;149.036;2023-06-26T07:01:26;10.40;82.30
40023;DHT22;25713;-35.352;149.036;2023-06-26T07:03:58;10.40;81.60
40023;DHT22;25713;-35.352;149.036;2023-06-26T07:06:27;10.50;82.80
40023;DHT22;25713;-35.352;149.036;2023-06-26T07:08:57;10.40;80.10
40023;DHT22;25713;-35.352;149.036;2023-06-26T07:11:26;10.30;81.50
40023;DHT22;25713;-35.352;149.036;2023-06-26T07:13:56;10.40;82.30
40023;DHT22;25713;-35.352;149.036;2023-06-26T07:16:27;10.50;81.40
40023;DHT22;25713;-35.352;149.036;2023-06-26T07:18:58;10.50;81.50
40023;DHT22;25713;-35.352;149.036;2023-06-26T07:21:28;10.50;81.40
40023;DHT22;25713;-35.352;149.036;2023-06-26T07:23:58;10.60;80.90
40023;DHT22;25713;-35.352;149.036;2023-06-26T07:26:27;10.60;79.60
40023;DHT22;25713;-35.352;149.036;2023-06-26T07:28:57;10.50;80.90
40023;DHT22;25713;-35.352;149.036;2023-06-26T07:31:27;10.70;82.60
40023;DHT22;25713;-35.352;149.036;2023-06-26T07:33:58;10.60;80.20
40023;DHT22;25713;-35.352;149.036;2023-06-26T07:36:28;10.50;80.00
40023;DHT22;25713;-35.352;149.036;2023-06-26T07:38:58;10.40;79.10
40023;DHT22;25713;-35.352;149.036;2023-06-26T07:41:29;10.40;80.50
40023;DHT22;25713;-35.352;149.036;2023-06-26T07:43:59;10.30;81.60
40023;DHT22;25713;-35.352;149.036;2023-06-26T07:46:29;10.30;80.40
40023;DHT22;25713;-35.352;149.036;2023-06-26T07:49:01;10.20;81.00
40023;DHT22;25713;-35.352;149.036;2023-06-26T07:51:31;10.20;81.30
40023;DHT22;25713;-35.352;149.036;2023-06-26T07:54:01;10.30;80.70
40023;DHT22;25713;-35.352;149.036;2023-06-26T07:56:31;10.40;81.20
40023;DHT22;25713;-35.352;149.036;2023-06-26T07:59:00;10.30;80.70
40023;DHT22;25713;-35.352;149.036;2023-06-26T08:01:30;10.40;80.10
40023;DHT22;25713;-35.352;149.036;2023-06-26T08:04:01;10.30;79.50
40023;DHT22;25713;-35.352;149.036;2023-06-26T08:06:31;10.30;80.40
40023;DHT22;25713;-35.352;149.036;2023-06-26T08:09:00;10.30;80.10
40023;DHT22;25713;-35.352;149.036;2023-06-26T08:11:30;10.40;81.10
40023;DHT22;25713;-35.352;149.036;2023-06-26T08:13:59;10.40;80.70
40023;DHT22;25713;-35.352;149.036;2023-06-26T08:16:29;10.40;81.60
40023;DHT22;25713;-35.352;149.036;2023-06-26T08:19:01;10.50;81.80
40023;DHT22;25713;-35.352;149.036;2023-06-26T08:21:30;10.50;80.90
40023;DHT22;25713;-35.352;149.036;2023-06-26T08:24:00;10.50;80.00
40023;DHT22;25713;-35.352;149.036;2023-06-26T08:26:29;10.50;79.80
40023;DHT22;25713;-35.352;149.036;2023-06-26T08:28:59;10.60;81.00
40023;DHT22;25713;-35.352;149.036;2023-06-26T08:31:29;10.70;80.20
40023;DHT22;25713;-35.352;149.036;2023-06-26T08:34:02;10.70;78.30
40023;DHT22;25713;-35.352;149.036;2023-06-26T08:36:32;10.60;78.40
40023;DHT22;25713;-35.352;149.036;2023-06-26T08:39:01;10.60;79.10
40023;DHT22;25713;-35.352;149.036;2023-06-26T08:41:31;10.70;80.10
40023;DHT22;25713;-35.352;149.036;2023-06-26T08:44:01;10.70;77.60
40023;DHT22;25713;-35.352;149.036;2023-06-26T08:46:31;10.70;79.80
40023;DHT22;25713;-35.352;149.036;2023-06-26T08:49:12;10.80;81.30
40023;DHT22;25713;-35.352;149.036;2023-06-26T08:51:52;10.90;80.70
40023;DHT22;25713;-35.352;149.036;2023-06-26T08:54:25;10.90;80.90
40023;DHT22;25713;-35.352;149.036;2023-06-26T08:56:57;11.00;80.70
40023;DHT22;25713;-35.352;149.036;2023-06-26T08:59:29;10.90;79.20
40023;DHT22;25713;-35.352;149.036;2023-06-26T09:01:59;10.80;77.50
40023;DHT22;25713;-35.352;149.036;2023-06-26T09:04:31;10.80;79.10
40023;DHT22;25713;-35.352;149.036;2023-06-26T09:07:01;10.90;78.90
40023;DHT22;25713;-35.352;149.036;2023-06-26T09:09:31;10.90;78.80
40023;DHT22;25713;-35.352;149.036;2023-06-26T09:12:02;10.90;78.10
40023;DHT22;25713;-35.352;149.036;2023-06-26T09:14:32;10.90;77.30
40023;DHT22;25713;-35.352;149.036;2023-06-26T09:17:02;10.90;78.20
40023;DHT22;25713;-35.352;149.036;2023-06-26T09:19:37;10.90;79.40
40023;DHT22;25713;-35.352;149.036;2023-06-26T09:22:12;10.80;77.90
40023;DHT22;25713;-35.352;149.036;2023-06-26T09:24:43;10.80;78.90
40023;DHT22;25713;-35.352;149.036;2023-06-26T09:27:14;10.80;78.50
40023;DHT22;25713;-35.352;149.036;2023-06-26T09:29:46;10.80;78.70
40023;DHT22;25713;-35.352;149.036;2023-06-26T09:32:15;10.80;78.50
40023;DHT22;25713;-35.352;149.036;2023-06-26T09:34:48;10.90;77.70
40023;DHT22;25713;-35.352;149.036;2023-06-26T09:37:21;10.80;78.10
40023;DHT22;25713;-35.352;149.036;2023-06-26T09:39:52;10.70;78.90
40023;DHT22;25713;-35.352;149.036;2023-06-26T09:42:22;10.70;77.50
40023;DHT22;25713;-35.352;149.036;2023-06-26T09:44:52;10.80;78.90
40023;DHT22;25713;-35.352;149.036;2023-06-26T09:47:22;10.70;79.50
40023;DHT22;25713;-35.352;149.036;2023-06-26T09:49:55;10.70;79.20
40023;DHT22;25713;-35.352;149.036;2023-06-26T09:52:27;10.70;79.40
40023;DHT22;25713;-35.352;149.036;2023-06-26T09:55:09;10.80;79.10
40023;DHT22;25713;-35.352;149.036;2023-06-26T09:57:39;10.70;81.60
40023;DHT22;25713;-35.352;149.036;2023-06-26T10:00:10;10.50;79.20
40023;DHT22;25713;-35.352;149.036;2023-06-26T10:02:43;10.40;79.30
40023;DHT22;25713;-35.352;149.036;2023-06-26T10:05:15;10.20;79.80
40023;DHT22;25713;-35.352;149.036;2023-06-26T10:07:45;10.10;79.90
40023;DHT22;25713;-35.352;149.036;2023-06-26T10:10:15;10.20;80.70
40023;DHT22;25713;-35.352;149.036;2023-06-26T10:12:48;10.10;79.20
40023;DHT22;25713;-35.352;149.036;2023-06-26T10:15:19;10.10;79.10
40023;DHT22;25713;-35.352;149.036;2023-06-26T10:17:50;10.10;78.60
40023;DHT22;25713;-35.352;149.036;2023-06-26T10:20:25;10.10;79.50
40023;DHT22;25713;-35.352;149.036;2023-06-26T10:22:57;10.10;80.70
40023;DHT22;25713;-35.352;149.036;2023-06-26T10:25:26;10.10;79.80
40023;DHT22;25713;-35.352;149.036;2023-06-26T10:27:58;9.90;80.40
40023;DHT22;25713;-35.352;149.036;2023-06-26T10:30:31;10.00;83.30
40023;DHT22;25713;-35.352;149.036;2023-06-26T10:33:04;10.20;82.40
40023;DHT22;25713;-35.352;149.036;2023-06-26T10:35:43;10.30;81.20
40023;DHT22;25713;-35.352;149.036;2023-06-26T10:38:13;10.30;80.30
40023;DHT22;25713;-35.352;149.036;2023-06-26T10:40:43;10.40;80.00
40023;DHT22;25713;-35.352;149.036;2023-06-26T10:43:14;10.50;79.70
40023;DHT22;25713;-35.352;149.036;2023-06-26T10:45:48;10.30;79.00
40023;DHT22;25713;-35.352;149.036;2023-06-26T10:48:18;10.40;80.80
40023;DHT22;25713;-35.352;149.036;2023-06-26T10:50:51;10.50;79.70
40023;DHT22;25713;-35.352;149.036;2023-06-26T10:53:26;10.50;80.70
40023;DHT22;25713;-35.352;149.036;2023-06-26T10:55:59;10.60;80.50
40023;DHT22;25713;-35.352;149.036;2023-06-26T10:58:40;10.60;80.70
40023;DHT22;25713;-35.352;149.036;2023-06-26T11:01:30;10.60;80.50
40023;DHT22;25713;-35.352;149.036;2023-06-26T11:04:09;10.70;80.10
40023;DHT22;25713;-35.352;149.036;2023-06-26T11:06:48;10.70;79.20
40023;DHT22;25713;-35.352;149.036;2023-06-26T11:09:23;10.70;80.50
40023;DHT22;25713;-35.352;149.036;2023-06-26T11:12:00;10.70;79.80
40023;DHT22;25713;-35.352;149.036;2023-06-26T11:14:31;10.80;80.00
40023;DHT22;25713;-35.352;149.036;2023-06-26T11:17:03;10.80;80.30
40023;DHT22;25713;-35.352;149.036;2023-06-26T11:19:34;10.80;80.30
40023;DHT22;25713;-35.352;149.036;2023-06-26T11:22:09;10.80;81.20
40023;DHT22;25713;-35.352;149.036;2023-06-26T11:24:39;10.80;81.20
40023;DHT22;25713;-35.352;149.036;2023-06-26T11:27:10;10.80;79.60
40023;DHT22;25713;-35.352;149.036;2023-06-26T11:29:46;10.90;81.50
40023;DHT22;25713;-35.352;149.036;2023-06-26T11:32:16;10.90;79.70
40023;DHT22;25713;-35.352;149.036;2023-06-26T11:34:47;10.90;79.70
40023;DHT22;25713;-35.352;149.036;2023-06-26T11:37:22;10.90;79.60
40023;DHT22;25713;-35.352;149.036;2023-06-26T11:39:51;10.80;79.40
40023;DHT22;25713;-35.352;149.036;2023-06-26T11:42:23;10.90;79.50
40023;DHT22;25713;-35.352;149.036;2023-06-26T11:51:21;11.00;80.20
40023;DHT22;25713;-35.352;149.036;2023-06-26T11:56:39;10.90;79.70
40023;DHT22;25713;-35.352;149.036;2023-06-26T11:59:07;10.90;80.20
40023;DHT22;25713;-35.352;149.036;2023-06-26T12:01:38;11.00;81.20
40023;DHT22;25713;-35.352;149.036;2023-06-26T12:04:08;10.80;80.60
40023;DHT22;25713;-35.352;149.036;2023-06-26T12:06:39;10.80;80.90
40023;DHT22;25713;-35.352;149.036;2023-06-26T12:09:11;10.80;80.20
40023;DHT22;25713;-35.352;149.036;2023-06-26T12:11:46;10.80;80.10
40023;DHT22;25713;-35.352;149.036;2023-06-26T12:14:17;10.80;80.30
40023;DHT22;25713;-35.352;149.036;2023-06-26T12:16:48;10.80;81.30
40023;DHT22;25713;-35.352;149.036;2023-06-26T12:27:17;10.80;80.10
40023;DHT22;25713;-35.352;149.036;2023-06-26T12:29:52;10.90;79.70
40023;DHT22;25713;-35.352;149.036;2023-06-26T12:32:29;10.90;80.00
40023;DHT22;25713;-35.352;149.036;2023-06-26T12:35:27;10.90;80.90
40023;DHT22;25713;-35.352;149.036;2023-06-26T12:38:00;10.90;81.00
40023;DHT22;25713;-35.352;149.036;2023-06-26T12:40:30;10.90;82.10
40023;DHT22;25713;-35.352;149.036;2023-06-26T12:46:15;10.80;80.70
40023;DHT22;25713;-35.352;149.036;2023-06-26T12:59:33;11.00;80.70
40023;DHT22;25713;-35.352;149.036;2023-06-26T13:20:04;10.90;81.10
40023;DHT22;25713;-35.352;149.036;2023-06-26T13:26:14;11.00;81.00
40023;DHT22;25713;-35.352;149.036;2023-06-26T13:28:47;11.00;81.00
40023;DHT22;25713;-35.352;149.036;2023-06-26T13:31:19;11.00;80.80
40023;DHT22;25713;-35.352;149.036;2023-06-26T13:43:42;11.00;81.70
40023;DHT22;25713;-35.352;149.036;2023-06-26T13:46:17;11.00;81.00
40023;DHT22;25713;-35.352;149.036;2023-06-26T13:59:44;10.80;81.80
40023;DHT22;25713;-35.352;149.036;2023-06-26T14:05:40;10.90;81.30
40023;DHT22;25713;-35.352;149.036;2023-06-26T14:11:59;10.90;80.80
40023;DHT22;25713;-35.352;149.036;2023-06-26T14:14:33;11.00;81.10
40023;DHT22;25713;-35.352;149.036;2023-06-26T14:20:30;10.90;80.80
40023;DHT22;25713;-35.352;149.036;2023-06-26T14:23:40;10.80;80.30
40023;DHT22;25713;-35.352;149.036;2023-06-26T14:41:01;10.80;82.80
40023;DHT22;25713;-35.352;149.036;2023-06-26T16:11:42;10.60;83.40
40023;DHT22;25713;-35.352;149.036;2023-06-26T16:18:17;10.80;84.90
40023;DHT22;25713;-35.352;149.036;2023-06-26T16:28:03;10.80;84.00
40023;DHT22;25713;-35.352;149.036;2023-06-26T16:30:34;10.80;84.80
40023;DHT22;25713;-35.352;149.036;2023-06-26T16:46:21;10.50;86.20
40023;DHT22;25713;-35.352;149.036;2023-06-26T16:48:51;10.50;86.60
40023;DHT22;25713;-35.352;149.036;2023-06-26T16:52:04;10.50;87.50
40023;DHT22;25713;-35.352;149.036;2023-06-26T16:54:46;10.50;86.90
40023;DHT22;25713;-35.352;149.036;2023-06-26T17:13:43;10.20;87.90
40023;DHT22;25713;-35.352;149.036;2023-06-26T17:20:22;10.30;87.00
40023;DHT22;25713;-35.352;149.036;2023-06-26T17:38:28;10.00;88.70
40023;DHT22;25713;-35.352;149.036;2023-06-26T17:41:04;9.90;87.60
40023;DHT22;25713;-35.352;149.036;2023-06-26T17:43:35;9.90;86.80
40023;DHT22;25713;-35.352;149.036;2023-06-26T17:55:57;9.70;85.70
40023;DHT22;25713;-35.352;149.036;2023-06-26T17:58:28;9.80;88.00
40023;DHT22;25713;-35.352;149.036;2023-06-26T18:00:58;9.80;87.50
40023;DHT22;25713;-35.352;149.036;2023-06-26T18:03:29;9.90;88.10
40023;DHT22;25713;-35.352;149.036;2023-06-26T18:06:01;9.80;85.70
40023;DHT22;25713;-35.352;149.036;2023-06-26T18:08:31;9.80;83.30
40023;DHT22;25713;-35.352;149.036;2023-06-26T18:11:07;9.80;85.20
40023;DHT22;25713;-35.352;149.036;2023-06-26T18:13:38;9.90;85.40
40023;DHT22;25713;-35.352;149.036;2023-06-26T18:46:24;10.40;84.60
40023;DHT22;25713;-35.352;149.036;2023-06-26T18:51:21;10.40;84.50
40023;DHT22;25713;-35.352;149.036;2023-06-26T19:02:17;10.40;85.10
40023;DHT22;25713;-35.352;149.036;2023-06-26T19:16:07;10.50;84.80
40023;DHT22;25713;-35.352;149.036;2023-06-26T19:22:31;10.50;85.50
40023;DHT22;25713;-35.352;149.036;2023-06-26T19:32:09;10.50;85.60
40023;DHT22;25713;-35.352;149.036;2023-06-26T19:34:43;10.50;84.30
40023;DHT22;25713;-35.352;149.036;2023-06-26T19:37:14;10.50;84.70
40023;DHT22;25713;-35.352;149.036;2023-06-26T19:47:33;10.50;85.10
40023;DHT22;25713;-35.352;149.036;2023-06-26T19:50:04;10.40;85.40
40023;DHT22;25713;-35.352;149.036;2023-06-26T19:53:15;10.50;84.50
40023;DHT22;25713;-35.352;149.036;2023-06-26T20:05:40;10.40;87.00
40023;DHT22;25713;-35.352;149.036;2023-06-26T20:15:47;10.50;86.50
40023;DHT22;25713;-35.352;149.036;2023-06-26T20:18:24;10.40;86.30
40023;DHT22;25713;-35.352;149.036;2023-06-26T20:28:00;10.40;85.80
40023;DHT22;25713;-35.352;149.036;2023-06-26T20:35:27;10.40;87.20
40023;DHT22;25713;-35.352;149.036;2023-06-26T20:38:01;10.40;87.70
40023;DHT22;25713;-35.352;149.036;2023-06-26T20:40:42;10.40;87.60
40023;DHT22;25713;-35.352;149.036;2023-06-26T20:43:18;10.40;86.00
40023;DHT22;25713;-35.352;149.036;2023-06-26T20:49:22;10.40;84.80
40023;DHT22;25713;-35.352;149.036;2023-06-26T20:51:54;10.40;86.50
40023;DHT22;25713;-35.352;149.036;2023-06-26T20:54:24;10.40;86.50
40023;DHT22;25713;-35.352;149.036;2023-06-26T20:57:07;10.40;85.70
40023;DHT22;25713;-35.352;149.036;2023-06-26T20:59:40;10.40;86.70
40023;DHT22;25713;-35.352;149.036;2023-06-26T21:02:10;10.40;87.00
40023;DHT22;25713;-35.352;149.036;2023-06-26T21:04:42;10.40;86.80
40023;DHT22;25713;-35.352;149.036;2023-06-26T21:07:12;10.30;86.50
40023;DHT22;25713;-35.352;149.036;2023-06-26T21:09:42;10.30;85.30
40023;DHT22;25713;-35.352;149.036;2023-06-26T21:12:12;10.40;84.60
40023;DHT22;25713;-35.352;149.036;2023-06-26T21:14:43;10.40;85.50
40023;DHT22;25713;-35.352;149.036;2023-06-26T21:17:13;10.40;86.00